sensor_id;sensor_type;location;lat;lon;timestamp;temperature;humidity
17346;DHT22;8790;53.590;10.002;2022-07-04T00:01:07;18.10;99.90
17346;DHT22;8790;53.590;10.002;2022-07-04T00:03:38;18.20;99.90
17346;DHT22;8790;53.590;10.002;2022-07-04T00:06:10;18.00;99.90
17346;DHT22;8790;53.590;10.002;2022-07-04T00:08:43;18.10;99.90
17346;DHT22;8790;53.590;10.002;2022-07-04T00:11:15;18.20;99.90
17346;DHT22;8790;53.590;10.002;2022-07-04T00:13:46;18.20;99.90
17346;DHT22;8790;53.590;10.002;2022-07-04T00:16:18;18.20;99.90
17346;DHT22;8790;53.590;10.002;2022-07-04T00:18:50;18.30;99.90
17346;DHT22;8790;53.590;10.002;2022-07-04T00:21:22;18.20;99.90
17346;DHT22;8790;53.590;10.002;2022-07-04T00:23:55;18.30;99.90
17346;DHT22;8790;53.590;10.002;2022-07-04T00:26:27;18.30;99.90
17346;DHT22;8790;53.590;10.002;2022-07-04T00:28:59;18.10;99.90
17346;DHT22;8790;53.590;10.002;2022-07-04T00:31:31;18.10;99.90
17346;DHT22;8790;53.590;10.002;2022-07-04T00:34:02;18.10;99.90
17346;DHT22;8790;53.590;10.002;2022-07-04T00:36:35;18.10;99.90
17346;DHT22;8790;53.590;10.002;2022-07-04T00:39:08;18.10;99.90
17346;DHT22;8790;53.590;10.002;2022-07-04T00:41:40;18.20;99.90
17346;DHT22;8790;53.590;10.002;2022-07-04T00:44:13;18.10;99.90
17346;DHT22;8790;53.590;10.002;2022-07-04T00:46:47;18.00;99.90
17346;DHT22;8790;53.590;10.002;2022-07-04T00:49:19;18.10;99.90
17346;DHT22;8790;53.590;10.002;2022-07-04T00:51:50;18.10;99.90
17346;DHT22;8790;53.590;10.002;2022-07-04T00:54:27;17.90;99.90
17346;DHT22;8790;53.590;10.002;2022-07-04T00:57:00;17.80;99.90
17346;DHT22;8790;53.590;10.002;2022-07-04T00:59:32;17.70;99.90
17346;DHT22;8790;53.590;10.002;2022-07-04T01:02:04;17.70;99.90
17346;DHT22;8790;53.590;10.002;2022-07-04T01:04:36;17.80;99.90
17346;DHT22;8790;53.590;10.002;2022-07-04T01:07:08;17.80;99.90
17346;DHT22;8790;53.590;10.002;2022-07-04T01:09:44;17.90;99.90
17346;DHT22;8790;53.590;10.002;2022-07-04T01:12:25;17.80;99.90
17346;DHT22;8790;53.590;10.002;2022-07-04T01:14:57;17.80;99.90
17346;DHT22;8790;53.590;10.002;2022-07-04T01:17:29;17.80;99.90
17346;DHT22;8790;53.590;10.002;2022-07-04T01:20:01;17.90;99.90
17346;DHT22;8790;53.590;10.002;2022-07-04T01:22:34;17.60;99.90
17346;DHT22;8790;53.590;10.002;2022-07-04T01:25:07;17.80;99.90
17346;DHT22;8790;53.590;10.002;2022-07-04T01:27:38;17.80;99.90
17346;DHT22;8790;53.590;10.002;2022-07-04T01:30:10;17.60;99.90
17346;DHT22;8790;53.590;10.002;2022-07-04T01:32:42;17.50;99.90
17346;DHT22;8790;53.590;10.002;2022-07-04T01:35:14;17.50;99.90
17346;DHT22;8790;53.590;10.002;2022-07-04T01:37:47;17.70;99.90
17346;DHT22;8790;53.590;10.002;2022-07-04T01:40:19;17.60;99.90
17346;DHT22;8790;53.590;10.002;2022-07-04T01:42:51;17.60;99.90
17346;DHT22;8790;53.590;10.002;2022-07-04T01:45:22;17.60;99.90
17346;DHT22;8790;53.590;10.002;2022-07-04T01:47:54;17.60;99.90
17346;DHT22;8790;53.590;10.002;2022-07-04T01:50:27;17.60;99.90
17346;DHT22;8790;53.590;10.002;2022-07-04T01:53:00;17.70;99.90
17346;DHT22;8790;53.590;10.002;2022-07-04T01:55:32;17.80;99.90
17346;DHT22;8790;53.590;10.002;2022-07-04T01:58:03;17.70;99.90
17346;DHT22;8790;53.590;10.002;2022-07-04T02:00:35;17.50;99.90
17346;DHT22;8790;53.590;10.002;2022-07-04T02:03:24;17.50;99.90
17346;DHT22;8790;53.590;10.002;2022-07-04T02:05:56;17.40;99.90
17346;DHT22;8790;53.590;10.002;2022-07-04T02:08:29;17.50;99.90
17346;DHT22;8790;53.590;10.002;2022-07-04T02:11:22;17.30;99.90
17346;DHT22;8790;53.590;10.002;2022-07-04T02:13:53;17.30;99.90
17346;DHT22;8790;53.590;10.002;2022-07-04T02:16:24;17.40;99.90
17346;DHT22;8790;53.590;10.002;2022-07-04T02:18:56;17.40;99.90
17346;DHT22;8790;53.590;10.002;2022-07-04T02:21:27;17.50;99.90
17346;DHT22;8790;53.590;10.002;2022-07-04T02:24:00;17.40;99.90
17346;DHT22;8790;53.590;10.002;2022-07-04T02:26:32;17.40;99.90
17346;DHT22;8790;53.590;10.002;2022-07-04T02:29:04;17.50;99.90
17346;DHT22;8790;53.590;10.002;2022-07-04T02:31:35;17.40;99.90
17346;DHT22;8790;53.590;10.002;2022-07-04T02:34:08;17.30;99.90
17346;DHT22;8790;53.590;10.002;2022-07-04T02:36:40;17.30;99.90
17346;DHT22;8790;53.590;10.002;2022-07-04T02:39:13;17.40;99.90
17346;DHT22;8790;53.590;10.002;2022-07-04T02:41:44;17.40;99.90
17346;DHT22;8790;53.590;10.002;2022-07-04T02:44:16;17.20;99.90
17346;DHT22;8790;53.590;10.002;2022-07-04T02:46:48;17.30;99.90
17346;DHT22;8790;53.590;10.002;2022-07-04T02:49:20;17.40;99.90
17346;DHT22;8790;53.590;10.002;2022-07-04T02:51:52;17.20;99.90
17346;DHT22;8790;53.590;10.002;2022-07-04T02:54:25;17.20;99.90
17346;DHT22;8790;53.590;10.002;2022-07-04T02:56:56;17.30;99.90
17346;DHT22;8790;53.590;10.002;2022-07-04T02:59:28;17.30;99.90
17346;DHT22;8790;53.590;10.002;2022-07-04T03:02:00;17.40;99.90
17346;DHT22;8790;53.590;10.002;2022-07-04T03:04:31;17.20;99.90
17346;DHT22;8790;53.590;10.002;2022-07-04T03:07:04;17.10;99.90
17346;DHT22;8790;53.590;10.002;2022-07-04T03:09:37;17.10;99.90
17346;DHT22;8790;53.590;10.002;2022-07-04T03:12:09;17.10;99.90
17346;DHT22;8790;53.590;10.002;2022-07-04T03:14:41;16.90;99.90
17346;DHT22;8790;53.590;10.002;2022-07-04T03:17:12;17.10;99.90
17346;DHT22;8790;53.590;10.002;2022-07-04T03:19:44;17.20;99.90
17346;DHT22;8790;53.590;10.002;2022-07-04T03:22:16;17.10;99.90
17346;DHT22;8790;53.590;10.002;2022-07-04T03:24:49;17.20;99.90
17346;DHT22;8790;53.590;10.002;2022-07-04T03:27:20;17.20;99.90
17346;DHT22;8790;53.590;10.002;2022-07-04T03:29:52;17.20;99.90
17346;DHT22;8790;53.590;10.002;2022-07-04T03:32:24;17.10;99.90
17346;DHT22;8790;53.590;10.002;2022-07-04T03:34:56;17.10;99.90
17346;DHT22;8790;53.590;10.002;2022-07-04T03:37:27;17.00;99.90
17346;DHT22;8790;53.590;10.002;2022-07-04T03:40:00;17.00;99.90
17346;DHT22;8790;53.590;10.002;2022-07-04T03:42:32;16.90;99.90
17346;DHT22;8790;53.590;10.002;2022-07-04T03:45:05;16.90;99.90
17346;DHT22;8790;53.590;10.002;2022-07-04T03:47:37;17.00;99.90
17346;DHT22;8790;53.590;10.002;2022-07-04T03:50:09;16.90;99.90
17346;DHT22;8790;53.590;10.002;2022-07-04T03:52:41;16.90;99.90
17346;DHT22;8790;53.590;10.002;2022-07-04T03:55:14;16.90;99.90
17346;DHT22;8790;53.590;10.002;2022-07-04T03:57:45;16.90;99.90
17346;DHT22;8790;53.590;10.002;2022-07-04T04:00:17;16.90;99.90
17346;DHT22;8790;53.590;10.002;2022-07-04T04:02:49;16.90;99.90
17346;DHT22;8790;53.590;10.002;2022-07-04T04:05:21;16.90;99.90
17346;DHT22;8790;53.590;10.002;2022-07-04T04:07:59;17.00;99.90
17346;DHT22;8790;53.590;10.002;2022-07-04T04:10:32;17.00;99.90
17346;DHT22;8790;53.590;10.002;2022-07-04T04:13:04;17.00;99.90
17346;DHT22;8790;53.590;10.002;2022-07-04T04:15:36;17.10;99.90
17346;DHT22;8790;53.590;10.002;2022-07-04T04:18:07;17.10;99.90
17346;DHT22;8790;53.590;10.002;2022-07-04T04:20:39;16.90;99.90
17346;DHT22;8790;53.590;10.002;2022-07-04T04:23:11;17.10;99.90
17346;DHT22;8790;53.590;10.002;2022-07-04T04:25:44;17.20;99.90
17346;DHT22;8790;53.590;10.002;2022-07-04T04:28:15;17.20;99.90
17346;DHT22;8790;53.590;10.002;2022-07-04T04:30:47;17.10;99.90
17346;DHT22;8790;53.590;10.002;2022-07-04T04:33:19;17.10;99.90
17346;DHT22;8790;53.590;10.002;2022-07-04T04:35:51;17.10;99.90
17346;DHT22;8790;53.590;10.002;2022-07-04T04:38:22;17.10;99.90
17346;DHT22;8790;53.590;10.002;2022-07-04T04:40:55;17.00;99.90
17346;DHT22;8790;53.590;10.002;2022-07-04T04:43:27;17.10;99.90
17346;DHT22;8790;53.590;10.002;2022-07-04T04:45:59;17.20;99.90
17346;DHT22;8790;53.590;10.002;2022-07-04T04:48:31;17.20;99.90
17346;DHT22;8790;53.590;10.002;2022-07-04T04:51:03;17.20;99.90
17346;DHT22;8790;53.590;10.002;2022-07-04T04:53:35;17.20;99.90
17346;DHT22;8790;53.590;10.002;2022-07-04T04:56:08;17.10;99.90
17346;DHT22;8790;53.590;10.002;2022-07-04T04:58:40;17.20;99.90
17346;DHT22;8790;53.590;10.002;2022-07-04T05:01:12;17.20;99.90
17346;DHT22;8790;53.590;10.002;2022-07-04T05:03:43;17.30;99.90
17346;DHT22;8790;53.590;10.002;2022-07-04T05:06:15;17.20;99.90
17346;DHT22;8790;53.590;10.002;2022-07-04T05:08:48;17.20;99.90
17346;DHT22;8790;53.590;10.002;2022-07-04T05:11:21;17.20;99.90
17346;DHT22;8790;53.590;10.002;2022-07-04T05:13:53;17.30;99.90
17346;DHT22;8790;53.590;10.002;2022-07-04T05:16:25;17.30;99.90
17346;DHT22;8790;53.590;10.002;2022-07-04T05:18:57;17.40;99.90
17346;DHT22;8790;53.590;10.002;2022-07-04T05:21:28;17.20;99.90
17346;DHT22;8790;53.590;10.002;2022-07-04T05:24:01;17.20;99.90
17346;DHT22;8790;53.590;10.002;2022-07-04T05:26:34;17.20;99.90
17346;DHT22;8790;53.590;10.002;2022-07-04T05:29:05;17.30;99.90
17346;DHT22;8790;53.590;10.002;2022-07-04T05:31:38;17.30;99.90
17346;DHT22;8790;53.590;10.002;2022-07-04T05:34:10;17.30;99.90
17346;DHT22;8790;53.590;10.002;2022-07-04T05:36:41;17.40;99.90
17346;DHT22;8790;53.590;10.002;2022-07-04T05:39:13;17.50;99.90
17346;DHT22;8790;53.590;10.002;2022-07-04T05:41:46;17.50;99.90
17346;DHT22;8790;53.590;10.002;2022-07-04T05:44:18;17.50;99.90
17346;DHT22;8790;53.590;10.002;2022-07-04T05:46:50;17.40;99.90
17346;DHT22;8790;53.590;10.002;2022-07-04T05:49:22;17.40;99.90
17346;DHT22;8790;53.590;10.002;2022-07-04T05:51:53;17.40;99.90
17346;DHT22;8790;53.590;10.002;2022-07-04T05:54:25;17.40;99.90
17346;DHT22;8790;53.590;10.002;2022-07-04T05:56:58;17.50;99.90
17346;DHT22;8790;53.590;10.002;2022-07-04T05:59:30;17.50;99.90
17346;DHT22;8790;53.590;10.002;2022-07-04T06:02:02;17.40;99.90
17346;DHT22;8790;53.590;10.002;2022-07-04T06:04:34;17.40;99.90
17346;DHT22;8790;53.590;10.002;2022-07-04T06:07:06;17.40;99.90
17346;DHT22;8790;53.590;10.002;2022-07-04T06:09:38;17.60;99.90
17346;DHT22;8790;53.590;10.002;2022-07-04T06:12:11;17.60;99.90
17346;DHT22;8790;53.590;10.002;2022-07-04T06:14:42;17.70;99.90
17346;DHT22;8790;53.590;10.002;2022-07-04T06:17:14;17.80;99.90
17346;DHT22;8790;53.590;10.002;2022-07-04T06:19:46;17.80;99.90
17346;DHT22;8790;53.590;10.002;2022-07-04T06:22:18;17.80;99.90
17346;DHT22;8790;53.590;10.002;2022-07-04T06:24:49;17.70;99.90
17346;DHT22;8790;53.590;10.002;2022-07-04T06:27:22;17.70;99.90
17346;DHT22;8790;53.590;10.002;2022-07-04T06:29:55;17.80;99.90
17346;DHT22;8790;53.590;10.002;2022-07-04T06:32:27;17.90;99.90
17346;DHT22;8790;53.590;10.002;2022-07-04T06:34:58;18.00;99.90
17346;DHT22;8790;53.590;10.002;2022-07-04T06:37:48;18.00;99.90
17346;DHT22;8790;53.590;10.002;2022-07-04T06:40:21;17.90;99.90
17346;DHT22;8790;53.590;10.002;2022-07-04T06:42:55;17.90;99.90
17346;DHT22;8790;53.590;10.002;2022-07-04T06:45:26;17.90;99.90
17346;DHT22;8790;53.590;10.002;2022-07-04T06:47:58;18.10;99.90
17346;DHT22;8790;53.590;10.002;2022-07-04T06:50:30;18.20;99.90
17346;DHT22;8790;53.590;10.002;2022-07-04T06:53:05;18.20;99.90
17346;DHT22;8790;53.590;10.002;2022-07-04T06:55:37;18.20;99.90
17346;DHT22;8790;53.590;10.002;2022-07-04T06:58:11;18.30;99.90
17346;DHT22;8790;53.590;10.002;2022-07-04T07:00:43;18.30;99.90
17346;DHT22;8790;53.590;10.002;2022-07-04T07:03:15;18.20;99.90
17346;DHT22;8790;53.590;10.002;2022-07-04T07:05:47;18.30;99.90
17346;DHT22;8790;53.590;10.002;2022-07-04T07:08:19;18.40;99.90
17346;DHT22;8790;53.590;10.002;2022-07-04T07:10:50;18.40;99.90
17346;DHT22;8790;53.590;10.002;2022-07-04T07:13:23;18.50;99.90
17346;DHT22;8790;53.590;10.002;2022-07-04T07:15:55;18.50;99.90
17346;DHT22;8790;53.590;10.002;2022-07-04T07:18:27;18.40;99.90
17346;DHT22;8790;53.590;10.002;2022-07-04T07:20:58;18.40;99.90
17346;DHT22;8790;53.590;10.002;2022-07-04T07:23:30;18.40;99.90
17346;DHT22;8790;53.590;10.002;2022-07-04T07:26:02;18.50;99.90
17346;DHT22;8790;53.590;10.002;2022-07-04T07:28:35;18.50;99.90
17346;DHT22;8790;53.590;10.002;2022-07-04T07:31:07;18.50;99.90
17346;DHT22;8790;53.590;10.002;2022-07-04T07:33:39;18.50;99.90
17346;DHT22;8790;53.590;10.002;2022-07-04T07:36:10;18.50;99.90
17346;DHT22;8790;53.590;10.002;2022-07-04T07:38:42;18.60;99.90
17346;DHT22;8790;53.590;10.002;2022-07-04T07:41:14;18.70;99.90
17346;DHT22;8790;53.590;10.002;2022-07-04T07:43:47;18.70;99.90
17346;DHT22;8790;53.590;10.002;2022-07-04T07:46:18;18.70;99.90
17346;DHT22;8790;53.590;10.002;2022-07-04T07:48:50;18.70;99.90
17346;DHT22;8790;53.590;10.002;2022-07-04T07:51:22;18.80;99.90
17346;DHT22;8790;53.590;10.002;2022-07-04T07:53:54;18.80;99.90
17346;DHT22;8790;53.590;10.002;2022-07-04T07:56:25;18.90;99.90
17346;DHT22;8790;53.590;10.002;2022-07-04T07:58:58;19.10;99.90
17346;DHT22;8790;53.590;10.002;2022-07-04T08:01:31;19.10;99.90
17346;DHT22;8790;53.590;10.002;2022-07-04T08:04:03;19.10;99.90
17346;DHT22;8790;53.590;10.002;2022-07-04T08:06:53;19.10;99.90
17346;DHT22;8790;53.590;10.002;2022-07-04T08:09:24;19.00;99.90
17346;DHT22;8790;53.590;10.002;2022-07-04T08:11:56;18.90;99.90
17346;DHT22;8790;53.590;10.002;2022-07-04T08:14:30;18.90;99.90
17346;DHT22;8790;53.590;10.002;2022-07-04T08:17:02;19.00;99.90
17346;DHT22;8790;53.590;10.002;2022-07-04T08:19:35;19.20;99.90
17346;DHT22;8790;53.590;10.002;2022-07-04T08:22:07;19.20;99.90
17346;DHT22;8790;53.590;10.002;2022-07-04T08:24:39;19.20;99.90
17346;DHT22;8790;53.590;10.002;2022-07-04T08:27:11;19.30;99.90
17346;DHT22;8790;53.590;10.002;2022-07-04T08:29:44;19.40;99.90
17346;DHT22;8790;53.590;10.002;2022-07-04T08:32:16;19.40;99.90
17346;DHT22;8790;53.590;10.002;2022-07-04T08:34:48;19.50;99.90
17346;DHT22;8790;53.590;10.002;2022-07-04T08:37:19;19.50;99.90
17346;DHT22;8790;53.590;10.002;2022-07-04T08:39:51;19.50;99.90
17346;DHT22;8790;53.590;10.002;2022-07-04T08:42:23;19.60;99.90
17346;DHT22;8790;53.590;10.002;2022-07-04T08:44:57;19.60;99.90
17346;DHT22;8790;53.590;10.002;2022-07-04T08:47:32;19.70;99.90
17346;DHT22;8790;53.590;10.002;2022-07-04T08:50:09;19.80;99.90
17346;DHT22;8790;53.590;10.002;2022-07-04T08:52:45;19.90;99.90
17346;DHT22;8790;53.590;10.002;2022-07-04T08:55:19;19.90;99.90
17346;DHT22;8790;53.590;10.002;2022-07-04T08:58:08;19.90;99.90
17346;DHT22;8790;53.590;10.002;2022-07-04T09:01:04;19.80;99.90
17346;DHT22;8790;53.590;10.002;2022-07-04T09:03:36;19.90;99.90
17346;DHT22;8790;53.590;10.002;2022-07-04T09:06:08;20.00;99.90
17346;DHT22;8790;53.590;10.002;2022-07-04T09:08:40;19.90;99.90
17346;DHT22;8790;53.590;10.002;2022-07-04T09:11:12;19.90;99.90
17346;DHT22;8790;53.590;10.002;2022-07-04T09:13:43;19.90;99.90
17346;DHT22;8790;53.590;10.002;2022-07-04T09:16:18;20.00;99.90
17346;DHT22;8790;53.590;10.002;2022-07-04T09:18:53;20.00;99.90
17346;DHT22;8790;53.590;10.002;2022-07-04T09:21:43;20.10;99.90
17346;DHT22;8790;53.590;10.002;2022-07-04T09:24:15;20.10;99.90
17346;DHT22;8790;53.590;10.002;2022-07-04T09:26:47;19.90;99.90
17346;DHT22;8790;53.590;10.002;2022-07-04T09:29:19;19.90;99.90
17346;DHT22;8790;53.590;10.002;2022-07-04T09:31:52;20.00;99.90
17346;DHT22;8790;53.590;10.002;2022-07-04T09:34:24;19.90;99.90
17346;DHT22;8790;53.590;10.002;2022-07-04T09:36:55;19.90;99.90
17346;DHT22;8790;53.590;10.002;2022-07-04T09:39:29;20.00;99.90
17346;DHT22;8790;53.590;10.002;2022-07-04T09:42:02;20.00;99.90
17346;DHT22;8790;53.590;10.002;2022-07-04T09:44:43;19.90;99.90
17346;DHT22;8790;53.590;10.002;2022-07-04T09:47:23;19.90;99.90
17346;DHT22;8790;53.590;10.002;2022-07-04T09:49:59;20.00;99.90
17346;DHT22;8790;53.590;10.002;2022-07-04T09:52:31;20.00;99.90
17346;DHT22;8790;53.590;10.002;2022-07-04T09:55:04;20.10;99.90
17346;DHT22;8790;53.590;10.002;2022-07-04T09:57:36;20.20;99.90
17346;DHT22;8790;53.590;10.002;2022-07-04T10:00:20;20.20;99.90
17346;DHT22;8790;53.590;10.002;2022-07-04T10:02:55;20.20;99.90
17346;DHT22;8790;53.590;10.002;2022-07-04T10:05:28;20.20;99.90
17346;DHT22;8790;53.590;10.002;2022-07-04T10:08:01;20.30;99.90
17346;DHT22;8790;53.590;10.002;2022-07-04T10:10:37;20.30;99.90
17346;DHT22;8790;53.590;10.002;2022-07-04T10:13:12;20.40;99.90
17346;DHT22;8790;53.590;10.002;2022-07-04T10:15:43;20.50;99.90
17346;DHT22;8790;53.590;10.002;2022-07-04T10:18:18;20.60;99.90
17346;DHT22;8790;53.590;10.002;2022-07-04T10:20:51;20.60;99.90
17346;DHT22;8790;53.590;10.002;2022-07-04T10:23:24;20.60;99.90
17346;DHT22;8790;53.590;10.002;2022-07-04T10:26:01;20.50;99.90
17346;DHT22;8790;53.590;10.002;2022-07-04T10:28:33;20.50;99.90
17346;DHT22;8790;53.590;10.002;2022-07-04T10:31:06;20.40;99.90
17346;DHT22;8790;53.590;10.002;2022-07-04T10:33:41;20.50;99.90
17346;DHT22;8790;53.590;10.002;2022-07-04T10:36:15;20.60;99.90
17346;DHT22;8790;53.590;10.002;2022-07-04T10:38:49;20.60;99.90
17346;DHT22;8790;53.590;10.002;2022-07-04T10:41:22;20.60;99.90
17346;DHT22;8790;53.590;10.002;2022-07-04T10:44:01;20.50;99.90
17346;DHT22;8790;53.590;10.002;2022-07-04T10:46:45;20.50;99.90
17346;DHT22;8790;53.590;10.002;2022-07-04T10:49:27;20.50;99.90
17346;DHT22;8790;53.590;10.002;2022-07-04T10:52:10;20.40;99.90
17346;DHT22;8790;53.590;10.002;2022-07-04T10:54:42;20.50;99.90
17346;DHT22;8790;53.590;10.002;2022-07-04T10:57:16;20.70;99.90
17346;DHT22;8790;53.590;10.002;2022-07-04T11:00:04;20.80;99.90
17346;DHT22;8790;53.590;10.002;2022-07-04T11:02:36;20.80;99.90
17346;DHT22;8790;53.590;10.002;2022-07-04T11:05:11;20.70;99.90
17346;DHT22;8790;53.590;10.002;2022-07-04T11:07:58;20.70;99.90
17346;DHT22;8790;53.590;10.002;2022-07-04T11:10:31;20.60;99.90
17346;DHT22;8790;53.590;10.002;2022-07-04T11:13:08;20.60;99.90
17346;DHT22;8790;53.590;10.002;2022-07-04T11:16:12;20.60;99.90
17346;DHT22;8790;53.590;10.002;2022-07-04T11:18:44;20.70;99.90
17346;DHT22;8790;53.590;10.002;2022-07-04T11:21:20;20.70;99.90
17346;DHT22;8790;53.590;10.002;2022-07-04T11:23:53;20.70;99.90
17346;DHT22;8790;53.590;10.002;2022-07-04T11:26:25;20.70;99.90
17346;DHT22;8790;53.590;10.002;2022-07-04T11:28:57;20.60;99.90
17346;DHT22;8790;53.590;10.002;2022-07-04T11:31:39;20.60;99.90
17346;DHT22;8790;53.590;10.002;2022-07-04T11:34:11;20.50;99.90
17346;DHT22;8790;53.590;10.002;2022-07-04T11:36:46;20.50;99.90
17346;DHT22;8790;53.590;10.002;2022-07-04T11:39:27;20.60;99.90
17346;DHT22;8790;53.590;10.002;2022-07-04T11:42:03;20.60;99.90
17346;DHT22;8790;53.590;10.002;2022-07-04T11:44:56;20.60;99.90
17346;DHT22;8790;53.590;10.002;2022-07-04T11:47:37;20.70;99.90
17346;DHT22;8790;53.590;10.002;2022-07-04T11:50:12;20.90;99.90
17346;DHT22;8790;53.590;10.002;2022-07-04T11:52:47;21.00;99.90
17346;DHT22;8790;53.590;10.002;2022-07-04T11:55:21;21.00;99.90
17346;DHT22;8790;53.590;10.002;2022-07-04T11:57:53;21.00;99.90
17346;DHT22;8790;53.590;10.002;2022-07-04T12:00:27;21.00;99.90
17346;DHT22;8790;53.590;10.002;2022-07-04T12:03:01;20.90;99.90
17346;DHT22;8790;53.590;10.002;2022-07-04T12:05:34;21.00;99.90
17346;DHT22;8790;53.590;10.002;2022-07-04T12:08:15;21.00;99.90
17346;DHT22;8790;53.590;10.002;2022-07-04T12:10:56;21.10;99.90
17346;DHT22;8790;53.590;10.002;2022-07-04T12:13:28;21.20;99.90
17346;DHT22;8790;53.590;10.002;2022-07-04T12:16:11;21.40;99.90
17346;DHT22;8790;53.590;10.002;2022-07-04T12:18:43;21.60;99.90
17346;DHT22;8790;53.590;10.002;2022-07-04T12:21:15;21.70;99.90
17346;DHT22;8790;53.590;10.002;2022-07-04T12:23:58;21.80;99.90
17346;DHT22;8790;53.590;10.002;2022-07-04T12:26:32;21.70;99.90
17346;DHT22;8790;53.590;10.002;2022-07-04T12:29:07;21.50;99.90
17346;DHT22;8790;53.590;10.002;2022-07-04T12:31:49;21.40;99.90
17346;DHT22;8790;53.590;10.002;2022-07-04T12:34:23;21.50;99.90
17346;DHT22;8790;53.590;10.002;2022-07-04T12:36:56;21.50;99.90
17346;DHT22;8790;53.590;10.002;2022-07-04T12:39:34;21.50;99.90
17346;DHT22;8790;53.590;10.002;2022-07-04T12:42:10;21.40;99.90
17346;DHT22;8790;53.590;10.002;2022-07-04T12:44:44;21.30;99.90
17346;DHT22;8790;53.590;10.002;2022-07-04T12:47:19;21.30;99.90
17346;DHT22;8790;53.590;10.002;2022-07-04T12:49:51;21.40;99.90
17346;DHT22;8790;53.590;10.002;2022-07-04T12:52:27;21.50;99.90
17346;DHT22;8790;53.590;10.002;2022-07-04T12:55:04;21.50;99.90
17346;DHT22;8790;53.590;10.002;2022-07-04T12:57:37;21.60;99.90
17346;DHT22;8790;53.590;10.002;2022-07-04T13:00:10;21.70;99.90
17346;DHT22;8790;53.590;10.002;2022-07-04T13:02:42;21.60;99.90
17346;DHT22;8790;53.590;10.002;2022-07-04T13:05:14;21.60;99.90
17346;DHT22;8790;53.590;10.002;2022-07-04T13:07:47;21.60;99.90
17346;DHT22;8790;53.590;10.002;2022-07-04T13:10:20;21.70;99.90
17346;DHT22;8790;53.590;10.002;2022-07-04T13:12:51;21.60;99.90
17346;DHT22;8790;53.590;10.002;2022-07-04T13:15:23;21.60;99.90
17346;DHT22;8790;53.590;10.002;2022-07-04T13:17:55;21.50;99.90
17346;DHT22;8790;53.590;10.002;2022-07-04T13:20:27;21.50;99.90
17346;DHT22;8790;53.590;10.002;2022-07-04T13:22:59;21.50;99.90
17346;DHT22;8790;53.590;10.002;2022-07-04T13:25:32;21.50;99.90
17346;DHT22;8790;53.590;10.002;2022-07-04T13:28:04;21.50;99.90
17346;DHT22;8790;53.590;10.002;2022-07-04T13:30:36;21.60;99.90
17346;DHT22;8790;53.590;10.002;2022-07-04T13:33:08;21.60;99.90
17346;DHT22;8790;53.590;10.002;2022-07-04T13:35:39;21.70;99.90
17346;DHT22;8790;53.590;10.002;2022-07-04T13:38:11;21.60;99.90
17346;DHT22;8790;53.590;10.002;2022-07-04T13:40:46;21.50;99.90
17346;DHT22;8790;53.590;10.002;2022-07-04T13:43:18;21.50;99.90
17346;DHT22;8790;53.590;10.002;2022-07-04T13:45:50;21.50;99.90
17346;DHT22;8790;53.590;10.002;2022-07-04T13:48:22;21.50;99.90
17346;DHT22;8790;53.590;10.002;2022-07-04T13:50:55;21.40;99.90
17346;DHT22;8790;53.590;10.002;2022-07-04T13:53:26;21.40;99.90
17346;DHT22;8790;53.590;10.002;2022-07-04T13:56:00;21.40;99.90
17346;DHT22;8790;53.590;10.002;2022-07-04T13:58:32;21.40;99.90
17346;DHT22;8790;53.590;10.002;2022-07-04T14:01:03;21.40;99.90
17346;DHT22;8790;53.590;10.002;2022-07-04T14:03:35;21.30;99.90
17346;DHT22;8790;53.590;10.002;2022-07-04T14:06:07;21.20;99.90
17346;DHT22;8790;53.590;10.002;2022-07-04T14:08:38;21.20;99.90
17346;DHT22;8790;53.590;10.002;2022-07-04T14:11:12;21.20;99.90
17346;DHT22;8790;53.590;10.002;2022-07-04T14:13:43;21.30;99.90
17346;DHT22;8790;53.590;10.002;2022-07-04T14:16:15;21.30;99.90
17346;DHT22;8790;53.590;10.002;2022-07-04T14:18:47;21.40;99.90
17346;DHT22;8790;53.590;10.002;2022-07-04T14:21:19;21.40;99.90
17346;DHT22;8790;53.590;10.002;2022-07-04T14:23:51;21.40;99.90
17346;DHT22;8790;53.590;10.002;2022-07-04T14:26:24;21.60;99.90
17346;DHT22;8790;53.590;10.002;2022-07-04T14:28:56;21.70;99.90
17346;DHT22;8790;53.590;10.002;2022-07-04T14:31:27;21.90;99.90
17346;DHT22;8790;53.590;10.002;2022-07-04T14:33:59;22.20;99.90
17346;DHT22;8790;53.590;10.002;2022-07-04T14:36:31;22.20;99.90
17346;DHT22;8790;53.590;10.002;2022-07-04T14:39:03;22.10;99.90
17346;DHT22;8790;53.590;10.002;2022-07-04T14:41:36;22.20;99.90
17346;DHT22;8790;53.590;10.002;2022-07-04T14:44:08;22.30;99.90
17346;DHT22;8790;53.590;10.002;2022-07-04T14:46:40;22.30;99.90
17346;DHT22;8790;53.590;10.002;2022-07-04T14:49:11;22.20;99.90
17346;DHT22;8790;53.590;10.002;2022-07-04T14:51:43;22.30;99.90
17346;DHT22;8790;53.590;10.002;2022-07-04T14:54:15;22.20;99.90
17346;DHT22;8790;53.590;10.002;2022-07-04T14:56:48;22.30;99.90
17346;DHT22;8790;53.590;10.002;2022-07-04T14:59:20;22.60;99.90
17346;DHT22;8790;53.590;10.002;2022-07-04T15:01:51;22.70;99.90
17346;DHT22;8790;53.590;10.002;2022-07-04T15:04:24;22.70;99.90
17346;DHT22;8790;53.590;10.002;2022-07-04T15:06:55;22.60;99.90
17346;DHT22;8790;53.590;10.002;2022-07-04T15:09:27;22.70;99.90
17346;DHT22;8790;53.590;10.002;2022-07-04T15:12:00;22.70;99.90
17346;DHT22;8790;53.590;10.002;2022-07-04T15:14:32;22.60;99.90
17346;DHT22;8790;53.590;10.002;2022-07-04T15:17:03;22.70;99.90
17346;DHT22;8790;53.590;10.002;2022-07-04T15:19:35;22.70;99.90
17346;DHT22;8790;53.590;10.002;2022-07-04T15:22:27;22.80;99.90
17346;DHT22;8790;53.590;10.002;2022-07-04T15:25:16;22.80;99.90
17346;DHT22;8790;53.590;10.002;2022-07-04T15:27:49;22.70;99.90
17346;DHT22;8790;53.590;10.002;2022-07-04T15:30:22;22.60;99.90
17346;DHT22;8790;53.590;10.002;2022-07-04T15:32:54;22.60;99.90
17346;DHT22;8790;53.590;10.002;2022-07-04T15:35:25;22.50;99.90
17346;DHT22;8790;53.590;10.002;2022-07-04T15:37:57;22.60;99.90
17346;DHT22;8790;53.590;10.002;2022-07-04T15:40:29;22.50;99.90
17346;DHT22;8790;53.590;10.002;2022-07-04T15:43:02;22.30;99.90
17346;DHT22;8790;53.590;10.002;2022-07-04T15:45:34;22.40;99.90
17346;DHT22;8790;53.590;10.002;2022-07-04T15:48:06;22.40;99.90
17346;DHT22;8790;53.590;10.002;2022-07-04T15:50:38;22.30;99.90
17346;DHT22;8790;53.590;10.002;2022-07-04T15:53:09;22.30;99.90
17346;DHT22;8790;53.590;10.002;2022-07-04T15:55:41;22.30;99.90
17346;DHT22;8790;53.590;10.002;2022-07-04T15:58:14;22.10;99.90
17346;DHT22;8790;53.590;10.002;2022-07-04T16:00:46;22.10;99.90
17346;DHT22;8790;53.590;10.002;2022-07-04T16:03:18;22.00;99.90
17346;DHT22;8790;53.590;10.002;2022-07-04T16:05:49;22.10;99.90
17346;DHT22;8790;53.590;10.002;2022-07-04T16:08:21;22.10;99.90